Time;durP1;ratioP1;P1;durP2;ratioP2;P2;SDS_P1;SDS_P2;PMS_P1;PMS_P2;Temp;Humidity;BMP_temperature;BMP_pressure;BME280_temperature;BME280_humidity;BME280_pressure;Samples;Min_cycle;Max_cycle;Signal;HPM_P1;HPM_P2
2022/07/30 00:00:00;;;;;;;5.60;5.10;;;25.20;79.10;;;;;;5025586;28;20435;-76
2022/07/30 00:02:26;;;;;;;5.97;5.37;;;25.20;79.20;;;;;;5026099;28;20184;-78
2022/07/30 00:04:51;;;;;;;6.20;5.60;;;25.20;79.40;;;;;;5021239;28;20160;-77
2022/07/30 00:07:17;;;;;;;6.53;5.93;;;25.10;79.50;;;;;;5026345;28;20585;-79
2022/07/30 00:09:43;;;;;;;6.10;5.50;;;25.10;79.70;;;;;;5025104;28;20271;-77
2022/07/30 00:12:09;;;;;;;6.03;5.57;;;25.10;79.80;;;;;;5024123;28;20212;-77
2022/07/30 00:14:35;;;;;;;7.10;5.73;;;25.10;80.00;;;;;;5025968;28;20215;-78
2022/07/30 00:17:01;;;;;;;6.30;5.77;;;25.10;80.00;;;;;;5017836;28;20738;-77
2022/07/30 00:19:27;;;;;;;6.30;5.80;;;25.00;80.10;;;;;;5037296;28;20427;-76
2022/07/30 00:21:56;;;;;;;7.70;5.93;;;25.00;80.20;;;;;;5025989;28;20477;-77
2022/07/30 00:24:22;;;;;;;5.90;5.40;;;25.00;80.30;;;;;;5038777;28;20180;-78
2022/07/30 00:26:48;;;;;;;7.97;5.80;;;25.00;80.60;;;;;;5026053;28;20515;-77
2022/07/30 00:29:14;;;;;;;6.00;5.50;;;24.90;80.70;;;;;;5022383;28;20546;-78
2022/07/30 00:31:39;;;;;;;6.53;5.93;;;24.90;80.70;;;;;;5024868;28;20234;-78
2022/07/30 00:34:05;;;;;;;6.80;5.83;;;24.90;80.80;;;;;;5025526;28;20193;-78
2022/07/30 00:36:31;;;;;;;6.67;6.07;;;24.90;81.10;;;;;;5026373;28;20266;-79
2022/07/30 00:38:57;;;;;;;11.10;7.00;;;24.80;81.20;;;;;;5025783;28;20207;-79
2022/07/30 00:41:23;;;;;;;9.40;6.70;;;24.70;81.60;;;;;;5024268;28;20451;-78
2022/07/30 00:43:49;;;;;;;7.67;6.97;;;24.70;82.20;;;;;;5040958;28;20223;-77
2022/07/30 00:46:15;;;;;;;7.63;6.93;;;24.70;82.20;;;;;;5023070;28;20459;-77
2022/07/30 00:48:41;;;;;;;9.30;5.80;;;24.70;82.00;;;;;;5026110;28;20976;-80
2022/07/30 00:51:07;;;;;;;5.97;5.47;;;24.70;82.00;;;;;;5025397;28;20184;-78
2022/07/30 00:53:34;;;;;;;6.03;5.53;;;24.70;82.00;;;;;;5023899;28;20442;-79
2022/07/30 00:55:59;;;;;;;11.00;6.17;;;24.70;82.00;;;;;;5025202;28;20216;-78
2022/07/30 00:58:25;;;;;;;5.90;5.40;;;24.60;82.20;;;;;;5026258;28;20475;-78
2022/07/30 01:00:51;;;;;;;7.90;5.37;;;24.60;82.60;;;;;;5024577;28;20183;-78
2022/07/30 01:03:17;;;;;;;6.80;6.10;;;24.50;83.10;;;;;;5025774;28;20463;-78
2022/07/30 01:05:43;;;;;;;7.43;6.20;;;24.50;83.10;;;;;;5029467;28;20553;-78
2022/07/30 01:08:08;;;;;;;6.37;5.77;;;24.50;83.30;;;;;;5023429;28;20191;-77
2022/07/30 01:10:34;;;;;;;7.10;6.20;;;24.50;83.50;;;;;;5026270;28;20276;-79
2022/07/30 01:13:00;;;;;;;6.73;6.10;;;24.50;83.60;;;;;;5024595;28;20189;-78
2022/07/30 01:15:26;;;;;;;6.83;5.70;;;24.40;84.60;;;;;;5028188;28;20207;-78
2022/07/30 01:17:56;;;;;;;7.57;5.93;;;24.40;83.90;;;;;;5027280;28;20462;-79
2022/07/30 01:20:42;;;;;;;6.27;5.67;;;24.40;85.20;;;;;;5034539;28;20439;-76
2022/07/30 01:23:16;;;;;;;6.10;5.60;;;24.40;84.50;;;;;;5036851;28;20435;-77
2022/07/30 01:25:57;;;;;;;6.43;5.83;;;24.30;85.20;;;;;;5036079;28;20494;-77
2022/07/30 01:28:27;;;;;;;7.47;5.93;;;24.20;85.60;;;;;;5026438;28;20442;-78
2022/07/30 01:30:54;;;;;;;6.03;5.43;;;24.10;85.80;;;;;;5036997;28;20465;-79
2022/07/30 01:33:21;;;;;;;9.10;5.90;;;24.00;86.40;;;;;;5032065;28;20453;-78
2022/07/30 01:35:49;;;;;;;5.83;5.30;;;24.00;86.40;;;;;;5027563;28;20589;-78
2022/07/30 01:38:20;;;;;;;8.63;7.83;;;24.00;86.60;;;;;;5029901;28;20816;-77
2022/07/30 01:40:47;;;;;;;8.13;6.40;;;23.90;87.10;;;;;;5026093;28;20439;-78
2022/07/30 01:43:14;;;;;;;9.23;6.17;;;23.90;87.20;;;;;;5028645;28;20870;-77
2022/07/30 01:45:40;;;;;;;6.93;6.23;;;23.90;87.40;;;;;;5027558;28;21012;-78
2022/07/30 01:48:08;;;;;;;7.57;6.20;;;23.80;87.70;;;;;;5031751;28;20549;-78
2022/07/30 01:50:35;;;;;;;8.70;6.40;;;23.50;88.60;;;;;;5027348;28;20435;-78
2022/07/30 01:53:02;;;;;;;7.13;6.53;;;23.50;88.80;;;;;;5026923;28;20503;-78
2022/07/30 01:55:34;;;;;;;7.27;5.73;;;23.60;88.80;;;;;;5027205;28;21005;-78
2022/07/30 01:58:02;;;;;;;6.37;5.77;;;23.60;88.90;;;;;;5027588;28;20472;-78
2022/07/30 02:00:30;;;;;;;7.33;6.10;;;23.50;89.40;;;;;;5026558;28;20443;-79
2022/07/30 02:02:57;;;;;;;6.80;6.10;;;23.50;89.70;;;;;;5031034;28;20443;-78
2022/07/30 02:05:23;;;;;;;7.00;6.40;;;23.50;90.10;;;;;;5023147;28;20471;-78
2022/07/30 02:07:56;;;;;;;8.63;6.27;;;23.40;90.40;;;;;;5026444;28;20450;-78
2022/07/30 02:10:29;;;;;;;7.63;6.77;;;23.40;90.70;;;;;;5030820;28;20439;-78
2022/07/30 02:13:00;;;;;;;7.80;6.50;;;23.20;91.30;;;;;;5030394;28;20521;-77
2022/07/30 02:15:33;;;;;;;7.50;5.90;;;23.00;91.90;;;;;;5030904;28;20467;-77
2022/07/30 02:18:06;;;;;;;8.77;5.97;;;22.90;93.10;;;;;;5034817;28;20469;-76
2022/07/30 02:20:33;;;;;;;7.47;6.67;;;22.80;93.40;;;;;;5035296;28;21124;-76
2022/07/30 02:23:05;;;;;;;8.80;7.90;;;22.80;93.80;;;;;;5028712;28;20921;-79
2022/07/30 02:25:34;;;;;;;7.13;6.53;;;22.80;94.10;;;;;;5020557;28;20991;-78
2022/07/30 02:28:04;;;;;;;7.10;6.50;;;22.80;94.40;;;;;;5024725;28;20462;-76
2022/07/30 02:30:33;;;;;;;6.93;6.27;;;22.90;94.50;;;;;;5028224;28;20453;-77
2022/07/30 02:33:03;;;;;;;7.00;6.40;;;22.80;94.80;;;;;;5030690;28;20458;-78
2022/07/30 02:35:30;;;;;;;9.63;6.40;;;22.70;95.40;;;;;;5024636;28;20469;-78
2022/07/30 02:37:58;;;;;;;11.13;6.80;;;22.60;95.70;;;;;;5027242;28;21012;-77
2022/07/30 02:40:25;;;;;;;6.90;6.30;;;22.60;96.00;;;;;;5026871;28;20925;-79
2022/07/30 02:42:52;;;;;;;7.47;6.77;;;22.50;96.30;;;;;;5026669;28;20485;-76
2022/07/30 02:45:18;;;;;;;8.20;6.40;;;22.50;96.90;;;;;;5024085;28;20446;-78
2022/07/30 02:47:47;;;;;;;9.17;6.70;;;22.50;96.90;;;;;;5028629;28;20447;-79
2022/07/30 02:50:14;;;;;;;7.80;7.10;;;22.40;97.30;;;;;;5027019;28;20441;-77
2022/07/30 02:52:41;;;;;;;7.60;6.90;;;22.30;97.70;;;;;;5025424;28;20466;-78
2022/07/30 02:55:10;;;;;;;8.60;6.80;;;22.20;98.10;;;;;;5024094;28;20465;-79
2022/07/30 02:57:39;;;;;;;8.50;6.97;;;22.30;98.10;;;;;;5026796;28;20561;-78
2022/07/30 03:00:05;;;;;;;7.37;6.60;;;22.20;98.20;;;;;;5026584;28;20937;-78
2022/07/30 03:02:33;;;;;;;9.63;5.93;;;22.20;98.30;;;;;;5028349;28;20443;-78
2022/07/30 03:05:01;;;;;;;7.33;6.63;;;22.20;98.10;;;;;;5025332;28;20453;-79
2022/07/30 03:07:28;;;;;;;10.87;6.60;;;22.20;98.10;;;;;;5026821;28;20471;-78
2022/07/30 03:09:55;;;;;;;7.60;7.00;;;22.20;98.00;;;;;;5023867;28;20438;-77
2022/07/30 03:12:21;;;;;;;9.13;7.00;;;22.10;98.10;;;;;;5024742;28;20466;-78
2022/07/30 03:14:47;;;;;;;7.60;6.90;;;22.20;98.10;;;;;;5029259;28;20443;-77
2022/07/30 03:17:16;;;;;;;7.23;6.63;;;22.10;98.40;;;;;;5029720;28;20471;-76
2022/07/30 03:19:43;;;;;;;7.60;6.90;;;22.00;98.60;;;;;;5027054;28;20181;-77
2022/07/30 03:22:11;;;;;;;7.33;6.63;;;22.00;98.80;;;;;;5022505;28;20522;-77
2022/07/30 03:24:39;;;;;;;7.50;6.80;;;21.90;99.10;;;;;;5029956;28;20806;-77
2022/07/30 03:27:06;;;;;;;7.80;7.00;;;21.80;99.50;;;;;;5030222;28;20477;-78
2022/07/30 03:29:35;;;;;;;8.37;6.83;;;21.80;99.50;;;;;;5026673;28;20461;-77
2022/07/30 03:32:03;;;;;;;7.13;6.43;;;21.80;99.80;;;;;;5022730;28;21633;-78
2022/07/30 03:34:33;;;;;;;7.53;6.67;;;21.70;99.90;;;;;;5025161;28;20438;-79
2022/07/30 03:37:00;;;;;;;8.30;6.90;;;21.70;99.90;;;;;;5027545;28;20516;-77
2022/07/30 03:39:27;;;;;;;7.30;6.70;;;21.70;99.90;;;;;;5024558;28;20473;-77
2022/07/30 03:41:54;;;;;;;7.00;6.40;;;21.60;99.90;;;;;;5020963;28;20497;-78
2022/07/30 03:44:21;;;;;;;9.27;7.17;;;21.60;99.90;;;;;;5029924;28;20442;-78
2022/07/30 03:46:49;;;;;;;7.53;6.70;;;21.50;99.90;;;;;;5028560;28;20458;-78
2022/07/30 03:49:16;;;;;;;6.70;6.07;;;21.50;99.90;;;;;;5023880;28;20414;-77
2022/07/30 03:51:42;;;;;;;7.10;6.50;;;21.50;99.90;;;;;;5026029;28;20486;-77
2022/07/30 03:54:10;;;;;;;7.07;6.40;;;21.40;99.90;;;;;;5024303;28;21025;-77
2022/07/30 03:56:37;;;;;;;7.73;7.03;;;21.50;99.90;;;;;;5021639;28;20466;-77
2022/07/30 03:59:05;;;;;;;7.70;6.40;;;21.50;99.90;;;;;;5025777;28;20471;-77
2022/07/30 04:01:30;;;;;;;8.80;6.23;;;21.40;99.90;;;;;;5023167;28;20435;-78
2022/07/30 04:04:07;;;;;;;7.17;6.50;;;21.30;99.90;;;;;;5029087;28;20446;-77
2022/07/30 04:06:38;;;;;;;7.40;6.57;;;21.30;99.90;;;;;;5041090;28;20196;-76
2022/07/30 04:09:07;;;;;;;7.57;6.83;;;21.30;99.90;;;;;;5024921;28;20489;-77
2022/07/30 04:11:34;;;;;;;7.30;6.70;;;21.20;99.90;;;;;;5024933;28;20474;-78
2022/07/30 04:13:59;;;;;;;12.03;6.73;;;21.20;99.90;;;;;;5027248;28;20411;-78
2022/07/30 04:16:36;;;;;;;7.10;6.40;;;21.30;99.90;;;;;;5031608;28;20438;-79
2022/07/30 04:19:05;;;;;;;7.93;7.07;;;21.30;99.90;;;;;;5028032;28;20283;-79
2022/07/30 04:21:32;;;;;;;9.10;6.30;;;21.20;99.90;;;;;;5026691;28;20457;-79
2022/07/30 04:24:00;;;;;;;7.50;6.90;;;21.10;99.90;;;;;;5028283;28;20424;-78
2022/07/30 04:26:30;;;;;;;8.33;6.60;;;21.10;99.90;;;;;;5026355;28;20489;-78
2022/07/30 04:28:57;;;;;;;7.07;6.47;;;21.20;99.90;;;;;;5029276;28;20426;-78
2022/07/30 04:31:22;;;;;;;7.40;6.80;;;21.10;99.90;;;;;;5025433;28;20782;-77
2022/07/30 04:33:49;;;;;;;7.90;6.50;;;21.00;99.90;;;;;;5025073;28;20537;-78
2022/07/30 04:36:15;;;;;;;7.97;6.60;;;21.00;99.90;;;;;;5026607;28;20459;-79
2022/07/30 04:38:40;;;;;;;8.07;6.43;;;21.00;99.90;;;;;;5030724;28;20270;-78
2022/07/30 04:41:06;;;;;;;14.40;6.10;;;21.10;99.90;;;;;;5029337;28;20185;-78
2022/07/30 04:43:32;;;;;;;6.83;6.13;;;21.00;99.90;;;;;;5028442;28;20647;-79
2022/07/30 04:45:58;;;;;;;7.10;6.50;;;21.00;99.90;;;;;;5026663;28;20212;-78
2022/07/30 04:48:25;;;;;;;8.07;7.17;;;21.00;99.90;;;;;;5029496;28;20471;-77
2022/07/30 04:50:56;;;;;;;6.60;6.10;;;21.00;99.90;;;;;;5023769;28;20268;-76
2022/07/30 04:53:21;;;;;;;7.40;6.40;;;21.00;99.90;;;;;;5028573;28;20972;-78
2022/07/30 04:55:50;;;;;;;7.47;6.77;;;21.00;99.90;;;;;;5016909;28;20512;-76
2022/07/30 04:58:18;;;;;;;7.50;6.63;;;21.00;99.90;;;;;;5024614;28;20243;-79
2022/07/30 05:00:44;;;;;;;7.60;6.90;;;21.00;99.90;;;;;;5026020;28;21003;-78
2022/07/30 05:03:13;;;;;;;10.53;8.33;;;20.90;99.90;;;;;;5023275;28;20487;-77
2022/07/30 05:05:40;;;;;;;8.23;6.60;;;21.10;99.90;;;;;;5030575;28;20644;-76
2022/07/30 05:08:06;;;;;;;8.20;6.87;;;21.00;99.90;;;;;;5026893;28;20447;-77
2022/07/30 05:10:32;;;;;;;7.43;6.73;;;21.00;99.90;;;;;;5029639;28;20416;-78
2022/07/30 05:12:57;;;;;;;6.87;6.23;;;21.10;99.90;;;;;;5027320;28;20516;-78
2022/07/30 05:15:23;;;;;;;7.00;6.40;;;21.00;99.90;;;;;;5023802;28;20255;-79
2022/07/30 05:17:49;;;;;;;7.97;7.30;;;21.00;99.90;;;;;;5016262;28;20208;-78
2022/07/30 05:20:15;;;;;;;6.97;6.37;;;21.10;99.90;;;;;;5029000;28;20186;-78
2022/07/30 05:22:41;;;;;;;7.30;6.50;;;21.10;99.90;;;;;;5029178;28;20796;-78
2022/07/30 05:25:07;;;;;;;7.27;6.03;;;21.10;99.90;;;;;;5029661;28;20202;-78
2022/07/30 05:27:32;;;;;;;7.10;6.40;;;21.10;99.90;;;;;;5025194;28;20671;-78
2022/07/30 05:29:58;;;;;;;7.30;6.60;;;21.20;99.90;;;;;;5015610;28;20466;-77
2022/07/30 05:32:24;;;;;;;7.33;6.67;;;21.20;99.90;;;;;;5023910;28;20194;-78
2022/07/30 05:34:49;;;;;;;6.87;6.27;;;21.30;99.90;;;;;;5028884;28;20267;-79
2022/07/30 05:37:15;;;;;;;11.20;7.07;;;21.30;99.90;;;;;;5031139;28;20271;-77
2022/07/30 05:39:41;;;;;;;9.80;6.47;;;21.20;99.90;;;;;;5043910;28;20252;-76
2022/07/30 05:42:06;;;;;;;6.70;6.10;;;21.20;99.90;;;;;;5046981;28;20192;-76
2022/07/30 05:44:32;;;;;;;9.37;6.67;;;21.30;99.90;;;;;;5051792;28;20260;-76
2022/07/30 05:46:58;;;;;;;9.30;6.47;;;21.30;99.90;;;;;;5040045;28;20228;-77
2022/07/30 05:49:23;;;;;;;7.73;6.00;;;21.30;99.90;;;;;;5025920;28;20176;-77
2022/07/30 05:51:49;;;;;;;7.13;6.47;;;21.30;99.90;;;;;;5026934;28;20183;-78
2022/07/30 05:54:14;;;;;;;7.47;6.77;;;21.40;99.90;;;;;;5029465;28;20180;-77
2022/07/30 05:56:40;;;;;;;6.90;6.20;;;21.40;99.90;;;;;;5033054;28;20655;-77
2022/07/30 05:59:06;;;;;;;7.47;6.57;;;21.50;99.90;;;;;;5021978;28;20208;-78
2022/07/30 06:01:31;;;;;;;9.03;6.33;;;21.60;99.90;;;;;;5021047;28;20188;-77
2022/07/30 06:03:57;;;;;;;10.77;6.27;;;21.50;99.90;;;;;;5029677;28;20189;-78
2022/07/30 06:06:23;;;;;;;7.80;6.83;;;21.50;99.90;;;;;;5032452;28;20213;-77
2022/07/30 06:08:49;;;;;;;6.30;5.80;;;21.60;99.90;;;;;;5036855;28;20189;-78
2022/07/30 06:11:15;;;;;;;12.60;6.30;;;21.60;99.90;;;;;;5033108;28;20187;-79
2022/07/30 06:13:40;;;;;;;8.70;6.37;;;21.70;99.90;;;;;;5029617;28;20439;-78
2022/07/30 06:16:06;;;;;;;7.30;6.60;;;21.70;99.90;;;;;;5033009;28;20442;-79
2022/07/30 06:18:32;;;;;;;8.83;6.70;;;21.70;99.90;;;;;;5031523;28;20643;-77
2022/07/30 06:20:57;;;;;;;8.43;6.43;;;21.80;99.90;;;;;;5028736;28;20207;-78
2022/07/30 06:23:23;;;;;;;7.00;6.40;;;21.80;99.90;;;;;;5036468;28;21035;-77
2022/07/30 06:25:49;;;;;;;7.17;6.10;;;21.90;99.90;;;;;;5032859;28;20268;-77
2022/07/30 06:28:17;;;;;;;11.93;7.07;;;21.90;99.90;;;;;;5032399;28;20216;-77
2022/07/30 06:30:44;;;;;;;7.10;6.40;;;22.00;99.90;;;;;;5034190;28;20542;-78
2022/07/30 06:33:10;;;;;;;6.53;5.93;;;22.10;99.90;;;;;;5033992;28;20448;-78
2022/07/30 06:35:36;;;;;;;7.07;6.03;;;22.10;99.90;;;;;;5032887;28;20458;-77
2022/07/30 06:38:02;;;;;;;7.40;6.70;;;22.20;99.80;;;;;;5028277;28;20462;-78
2022/07/30 06:40:28;;;;;;;7.17;6.17;;;22.30;99.70;;;;;;5029132;28;20565;-77
2022/07/30 06:42:53;;;;;;;6.63;5.70;;;22.30;99.40;;;;;;5028726;28;20252;-79
2022/07/30 06:45:19;;;;;;;5.90;5.30;;;22.40;99.20;;;;;;5027163;28;20599;-78
2022/07/30 06:47:45;;;;;;;8.40;6.60;;;22.40;99.20;;;;;;5030494;28;20711;-78
2022/07/30 06:50:10;;;;;;;6.90;6.30;;;22.40;99.00;;;;;;5026256;28;20222;-77
2022/07/30 06:52:36;;;;;;;6.40;5.80;;;22.50;98.50;;;;;;5035759;28;20181;-78
2022/07/30 06:55:03;;;;;;;9.30;5.63;;;22.60;98.10;;;;;;5035650;28;20552;-79
2022/07/30 06:57:28;;;;;;;7.17;6.43;;;22.60;98.00;;;;;;5034636;28;20218;-78
2022/07/30 06:59:54;;;;;;;8.00;6.50;;;22.70;97.80;;;;;;5034327;28;20455;-78
2022/07/30 07:02:19;;;;;;;8.53;6.00;;;22.90;97.10;;;;;;5037466;28;20184;-79
2022/07/30 07:04:45;;;;;;;8.80;5.80;;;22.90;96.90;;;;;;5035896;28;20177;-78
2022/07/30 07:07:11;;;;;;;7.27;5.57;;;23.00;96.70;;;;;;5038558;28;20208;-78
2022/07/30 07:09:36;;;;;;;6.47;5.93;;;23.00;96.30;;;;;;5038475;28;20187;-78
2022/07/30 07:12:02;;;;;;;13.73;7.33;;;23.10;96.10;;;;;;5038401;28;20238;-79
2022/07/30 07:14:28;;;;;;;6.40;5.57;;;23.10;96.10;;;;;;5029668;28;20192;-79
2022/07/30 07:16:53;;;;;;;8.53;5.60;;;23.10;96.10;;;;;;5031301;28;20219;-78
2022/07/30 07:19:19;;;;;;;12.60;6.67;;;23.20;96.00;;;;;;5029924;28;20226;-75
2022/07/30 07:21:45;;;;;;;7.00;6.30;;;23.20;95.30;;;;;;5026508;28;20704;-78
2022/07/30 07:24:10;;;;;;;7.33;6.53;;;23.30;95.20;;;;;;5028271;28;20187;-77
2022/07/30 07:26:36;;;;;;;8.77;5.97;;;23.40;95.00;;;;;;5023983;28;20295;-77
2022/07/30 07:29:02;;;;;;;8.33;6.60;;;23.40;94.80;;;;;;5028415;28;20183;-78
2022/07/30 07:31:27;;;;;;;8.50;5.57;;;23.40;94.90;;;;;;5027365;28;20778;-77
2022/07/30 07:33:53;;;;;;;5.87;5.30;;;23.50;94.80;;;;;;5030856;28;20188;-77
2022/07/30 07:36:22;;;;;;;6.47;5.97;;;23.60;94.50;;;;;;5024079;28;20270;-77
2022/07/30 07:38:48;;;;;;;6.87;6.23;;;23.70;94.50;;;;;;5025594;28;20216;-76
2022/07/30 07:41:14;;;;;;;6.73;6.13;;;23.80;94.50;;;;;;5028664;28;20528;-78
2022/07/30 07:43:40;;;;;;;6.47;5.87;;;23.80;94.50;;;;;;5026129;28;20497;-77
2022/07/30 07:46:06;;;;;;;6.00;5.50;;;23.90;94.30;;;;;;5030650;28;20204;-76
2022/07/30 07:48:32;;;;;;;6.00;5.50;;;24.00;94.10;;;;;;5032278;28;20192;-76
2022/07/30 07:50:58;;;;;;;7.60;5.67;;;24.00;93.70;;;;;;5027282;28;20449;-77
2022/07/30 07:53:24;;;;;;;7.10;6.00;;;24.00;93.80;;;;;;5028075;28;20185;-77
2022/07/30 07:55:50;;;;;;;6.90;6.20;;;24.10;93.60;;;;;;5027945;28;20473;-78
2022/07/30 07:58:16;;;;;;;5.63;5.13;;;24.20;93.50;;;;;;5025028;28;20234;-76
2022/07/30 08:00:42;;;;;;;12.50;6.37;;;24.20;93.40;;;;;;5026964;28;20494;-77
2022/07/30 08:03:08;;;;;;;6.93;6.23;;;24.20;92.50;;;;;;5027777;28;20530;-77
2022/07/30 08:05:34;;;;;;;5.70;5.10;;;24.20;92.50;;;;;;5024549;28;20195;-78
2022/07/30 08:08:07;;;;;;;6.63;5.83;;;24.20;91.80;;;;;;5029212;28;20194;-77
2022/07/30 08:10:32;;;;;;;6.87;6.03;;;24.40;92.00;;;;;;5029798;28;20177;-76
2022/07/30 08:12:58;;;;;;;5.63;5.13;;;24.40;91.70;;;;;;5027350;28;20516;-78
2022/07/30 08:15:24;;;;;;;6.67;5.97;;;24.50;92.00;;;;;;5029015;28;20184;-76
2022/07/30 08:17:50;;;;;;;6.20;5.60;;;24.50;92.00;;;;;;5025783;28;20207;-76
2022/07/30 08:20:15;;;;;;;6.87;6.17;;;24.50;91.40;;;;;;5028817;28;20439;-77
2022/07/30 08:22:42;;;;;;;6.97;6.27;;;24.40;90.90;;;;;;5030551;28;20169;-77
2022/07/30 08:25:08;;;;;;;6.80;6.10;;;24.50;91.10;;;;;;5030671;28;20705;-76
2022/07/30 08:27:34;;;;;;;6.07;5.17;;;24.60;91.00;;;;;;5024596;28;20814;-78
2022/07/30 08:30:07;;;;;;;6.20;5.60;;;24.70;91.00;;;;;;5028101;28;20439;-78
2022/07/30 08:32:32;;;;;;;6.20;5.07;;;24.80;90.60;;;;;;5024715;28;20318;-76
2022/07/30 08:34:58;;;;;;;5.17;4.77;;;24.80;90.10;;;;;;5028187;28;20439;-77
2022/07/30 08:37:24;;;;;;;7.90;5.57;;;24.90;90.00;;;;;;5024345;28;20209;-78
2022/07/30 08:39:50;;;;;;;6.20;5.60;;;24.90;89.00;;;;;;5025897;28;20180;-76
2022/07/30 08:42:16;;;;;;;7.20;5.90;;;24.90;87.90;;;;;;5025701;28;20172;-77
2022/07/30 08:44:44;;;;;;;6.13;5.63;;;24.80;89.00;;;;;;5023685;28;20797;-77
2022/07/30 08:47:14;;;;;;;6.50;5.60;;;24.70;89.50;;;;;;5027921;28;20596;-77
2022/07/30 08:49:40;;;;;;;6.00;5.50;;;24.80;89.50;;;;;;5024718;28;20498;-76
2022/07/30 08:52:07;;;;;;;14.00;6.20;;;24.70;89.30;;;;;;5027300;28;20439;-78
2022/07/30 08:54:34;;;;;;;13.50;5.70;;;24.70;89.20;;;;;;5026472;28;20211;-76
2022/07/30 08:57:00;;;;;;;7.73;5.87;;;24.80;89.60;;;;;;5025999;28;20454;-77
2022/07/30 08:59:26;;;;;;;6.70;5.70;;;24.70;87.60;;;;;;5020362;28;20494;-78
2022/07/30 09:01:52;;;;;;;6.40;5.47;;;24.80;88.60;;;;;;5026496;28;20423;-75
2022/07/30 09:04:18;;;;;;;9.83;5.07;;;24.90;86.70;;;;;;5015447;28;20435;-76
2022/07/30 09:06:44;;;;;;;5.53;4.93;;;25.00;85.10;;;;;;5027883;28;20243;-77
2022/07/30 09:09:09;;;;;;;5.20;4.70;;;25.20;85.70;;;;;;5027170;28;20239;-77
2022/07/30 09:11:35;;;;;;;5.77;5.27;;;25.10;83.10;;;;;;5024813;28;21289;-76
2022/07/30 09:14:09;;;;;;;6.17;5.50;;;25.10;83.60;;;;;;5022177;28;20184;-77
2022/07/30 09:16:35;;;;;;;7.70;4.83;;;25.20;81.20;;;;;;5025939;28;20228;-76
2022/07/30 09:19:16;;;;;;;6.03;5.20;;;25.30;79.30;;;;;;5022929;28;20479;-77
2022/07/30 09:21:42;;;;;;;6.23;4.30;;;25.30;75.40;;;;;;5025545;28;20427;-76
2022/07/30 09:24:11;;;;;;;5.60;4.77;;;25.20;75.60;;;;;;5023605;28;20494;-77
2022/07/30 09:27:06;;;;;;;5.47;4.97;;;25.20;78.00;;;;;;5025512;28;20820;-77
2022/07/30 09:29:31;;;;;;;5.17;4.70;;;25.30;78.60;;;;;;5020610;28;21184;-76
2022/07/30 09:32:03;;;;;;;7.67;5.63;;;25.30;78.40;;;;;;5025296;28;20419;-75
2022/07/30 09:34:42;;;;;;;6.23;5.50;;;25.30;78.00;;;;;;5046854;28;20188;-76
2022/07/30 09:37:18;;;;;;;5.40;4.73;;;25.30;77.30;;;;;;5041148;28;20882;-78
2022/07/30 09:39:46;;;;;;;4.93;4.50;;;25.40;77.50;;;;;;5027337;28;20996;-77
2022/07/30 09:42:26;;;;;;;7.47;4.63;;;25.50;77.70;;;;;;5021553;28;20489;-77
2022/07/30 09:45:13;;;;;;;5.30;4.80;;;25.50;76.90;;;;;;5025015;28;20423;-76
2022/07/30 09:47:47;;;;;;;5.73;4.40;;;25.50;76.60;;;;;;5011188;28;20824;-77
2022/07/30 09:50:14;;;;;;;5.50;5.03;;;25.60;76.70;;;;;;5023509;28;21023;-76
2022/07/30 09:52:44;;;;;;;5.90;5.13;;;25.80;77.30;;;;;;5031557;28;20424;-76
2022/07/30 09:55:12;;;;;;;6.03;5.17;;;25.80;76.90;;;;;;5019236;28;20456;-75
2022/07/30 09:57:56;;;;;;;9.50;5.10;;;25.80;77.50;;;;;;5027095;28;20409;-76
2022/07/30 10:00:24;;;;;;;5.63;4.87;;;25.80;77.50;;;;;;5039794;28;20461;-76
2022/07/30 10:02:51;;;;;;;12.60;10.20;;;25.90;77.50;;;;;;5024535;28;20508;-77
2022/07/30 10:05:18;;;;;;;5.73;5.00;;;26.10;76.00;;;;;;5025571;28;20777;-76
2022/07/30 10:08:01;;;;;;;19.60;13.40;;;26.20;76.50;;;;;;5030805;28;20442;-77
2022/07/30 10:10:28;;;;;;;6.10;5.10;;;26.30;75.80;;;;;;5027352;28;20533;-73
2022/07/30 10:13:00;;;;;;;5.40;4.70;;;26.40;75.10;;;;;;5026898;28;20440;-76
2022/07/30 10:15:33;;;;;;;6.40;5.20;;;26.40;74.50;;;;;;5026963;28;20433;-77
2022/07/30 10:18:00;;;;;;;8.27;5.23;;;26.40;74.00;;;;;;5028128;28;20554;-75
2022/07/30 10:20:27;;;;;;;6.20;4.70;;;26.40;74.20;;;;;;5026959;28;20443;-75
2022/07/30 10:22:54;;;;;;;5.43;4.90;;;26.40;74.10;;;;;;5016486;28;20432;-75
2022/07/30 10:25:23;;;;;;;6.47;5.20;;;26.60;73.90;;;;;;5026947;28;20453;-76
2022/07/30 10:27:49;;;;;;;5.80;4.80;;;26.70;73.40;;;;;;5027506;28;20561;-75
2022/07/30 10:30:16;;;;;;;4.97;4.47;;;26.70;72.70;;;;;;5024605;28;20454;-76
2022/07/30 10:32:43;;;;;;;6.50;4.90;;;26.80;72.90;;;;;;5024912;28;20536;-76
2022/07/30 10:35:10;;;;;;;5.17;4.77;;;26.90;71.70;;;;;;5027665;28;20431;-75
2022/07/30 10:37:47;;;;;;;9.50;4.53;;;26.90;71.00;;;;;;5022561;28;20435;-76
2022/07/30 10:40:23;;;;;;;5.17;4.30;;;26.90;70.60;;;;;;5025676;28;20445;-74
2022/07/30 10:42:49;;;;;;;6.50;4.83;;;27.00;70.00;;;;;;5025119;28;20518;-76
2022/07/30 10:45:32;;;;;;;6.47;4.83;;;26.90;70.50;;;;;;5022371;28;20515;-76
2022/07/30 10:48:01;;;;;;;4.73;4.17;;;26.90;70.80;;;;;;5023615;28;20185;-75
2022/07/30 10:50:28;;;;;;;4.97;4.20;;;26.90;70.80;;;;;;5020391;28;20922;-76
2022/07/30 10:52:59;;;;;;;4.83;4.43;;;27.00;68.90;;;;;;5033470;28;20428;-77
2022/07/30 10:55:34;;;;;;;7.53;4.77;;;27.10;68.30;;;;;;5022927;28;20905;-77
2022/07/30 10:58:02;;;;;;;9.07;5.00;;;27.00;68.00;;;;;;5023177;28;20512;-76
2022/07/30 11:00:31;;;;;;;5.33;4.33;;;27.10;68.60;;;;;;5036929;28;20412;-77
2022/07/30 11:03:15;;;;;;;4.70;4.10;;;27.20;67.00;;;;;;5029325;28;20482;-77
2022/07/30 11:05:42;;;;;;;6.17;4.50;;;27.20;66.80;;;;;;5025748;28;20526;-77
2022/07/30 11:08:29;;;;;;;8.83;4.10;;;27.30;66.60;;;;;;5022782;28;20501;-76
2022/07/30 11:10:55;;;;;;;6.30;4.03;;;27.30;66.70;;;;;;5021332;28;20451;-77
2022/07/30 11:13:50;;;;;;;7.20;4.67;;;27.30;66.80;;;;;;5024049;28;20435;-76
2022/07/30 11:16:19;;;;;;;7.17;4.63;;;27.50;66.50;;;;;;5024378;28;20434;-75
2022/07/30 11:19:03;;;;;;;4.30;3.90;;;27.60;65.60;;;;;;5025317;28;20494;-76
2022/07/30 11:21:30;;;;;;;8.23;4.70;;;27.70;64.60;;;;;;5022284;28;20438;-74
2022/07/30 11:23:58;;;;;;;4.53;4.20;;;27.80;63.20;;;;;;5021067;28;20465;-76
2022/07/30 11:26:42;;;;;;;4.40;4.00;;;27.80;61.90;;;;;;5016525;28;20476;-76
2022/07/30 11:29:39;;;;;;;5.10;4.70;;;27.90;62.10;;;;;;5022694;28;20849;-74
2022/07/30 11:32:31;;;;;;;4.83;4.10;;;28.10;62.40;;;;;;5021986;28;20439;-77
2022/07/30 11:35:15;;;;;;;4.13;3.73;;;28.10;61.90;;;;;;5022822;28;21088;-75
2022/07/30 11:38:08;;;;;;;4.50;4.10;;;28.20;61.00;;;;;;5024870;28;20507;-76
2022/07/30 11:40:41;;;;;;;6.03;3.70;;;28.10;60.50;;;;;;5025363;28;20423;-77
2022/07/30 11:43:28;;;;;;;4.20;3.80;;;28.30;60.10;;;;;;5025355;28;20429;-77
2022/07/30 11:46:22;;;;;;;4.40;3.80;;;28.30;59.70;;;;;;5023985;28;20829;-77
2022/07/30 11:48:58;;;;;;;4.70;4.30;;;28.40;59.70;;;;;;5021559;28;20405;-76
2022/07/30 11:51:24;;;;;;;5.13;3.90;;;28.30;59.60;;;;;;5024388;28;20514;-75
2022/07/30 11:54:04;;;;;;;5.77;3.87;;;28.40;59.80;;;;;;5020463;28;20505;-77
2022/07/30 11:56:30;;;;;;;8.43;3.83;;;28.50;60.80;;;;;;5021690;28;20454;-75
2022/07/30 11:59:04;;;;;;;4.20;3.60;;;28.80;59.30;;;;;;5021327;28;20458;-76
2022/07/30 12:01:30;;;;;;;4.10;3.70;;;28.80;58.50;;;;;;5019262;28;20527;-76
2022/07/30 12:03:56;;;;;;;9.57;3.63;;;28.90;58.20;;;;;;5021916;28;20443;-77
2022/07/30 12:06:22;;;;;;;4.40;3.40;;;29.20;57.40;;;;;;5021679;28;20522;-78
2022/07/30 12:08:52;;;;;;;4.27;3.97;;;29.40;56.60;;;;;;5019489;28;20435;-77
2022/07/30 12:11:19;;;;;;;7.47;3.60;;;29.10;56.60;;;;;;5017952;28;20419;-77
2022/07/30 12:13:55;;;;;;;4.57;3.73;;;29.30;56.70;;;;;;5017800;28;20445;-77
2022/07/30 12:16:21;;;;;;;4.10;3.70;;;29.70;56.90;;;;;;5034617;28;20444;-77
2022/07/30 12:18:47;;;;;;;4.20;3.80;;;29.70;56.00;;;;;;5019675;28;20977;-77
2022/07/30 12:21:16;;;;;;;3.80;3.50;;;29.90;55.50;;;;;;5014813;28;20184;-77
2022/07/30 12:23:52;;;;;;;4.67;3.87;;;30.30;55.90;;;;;;5016880;28;20176;-77
2022/07/30 12:26:23;;;;;;;3.40;3.10;;;30.80;54.90;;;;;;5016186;28;20447;-76
2022/07/30 12:28:49;;;;;;;4.90;3.40;;;30.90;53.50;;;;;;5020567;28;20447;-76
2022/07/30 12:31:16;;;;;;;3.60;3.30;;;30.30;53.40;;;;;;5017314;28;20455;-77
2022/07/30 12:33:41;;;;;;;4.00;3.40;;;30.30;53.90;;;;;;5015803;28;20431;-76
2022/07/30 12:36:09;;;;;;;3.97;3.67;;;30.60;53.60;;;;;;5017362;28;20451;-77
2022/07/30 12:38:47;;;;;;;3.63;3.33;;;30.80;53.60;;;;;;5016596;28;20200;-77
2022/07/30 12:41:13;;;;;;;4.30;3.43;;;31.10;53.10;;;;;;5017730;28;20396;-76
2022/07/30 12:43:52;;;;;;;4.20;3.80;;;31.30;52.60;;;;;;5014935;28;20453;-76
2022/07/30 12:46:22;;;;;;;3.33;3.10;;;31.20;52.20;;;;;;5015780;28;20560;-76
2022/07/30 12:48:53;;;;;;;3.30;3.07;;;31.10;52.00;;;;;;5011664;28;20421;-75
2022/07/30 12:51:20;;;;;;;4.57;3.03;;;31.00;52.30;;;;;;5013278;28;20496;-76